sensor_id;sensor_type;location;lat;lon;timestamp;P1;durP1;ratioP1;P2;durP2;ratioP2
34405;SDS011;20658;45.630;8.886;2024-03-08T00:00:25;53.15;;;30.80;;
34405;SDS011;20658;45.630;8.886;2024-03-08T00:02:58;52.50;;;33.95;;
34405;SDS011;20658;45.630;8.886;2024-03-08T00:05:27;49.90;;;30.17;;
34405;SDS011;20658;45.630;8.886;2024-03-08T00:08:01;46.88;;;29.63;;
34405;SDS011;20658;45.630;8.886;2024-03-08T00:10:30;73.07;;;46.22;;
34405;SDS011;20658;45.630;8.886;2024-03-08T00:13:06;91.47;;;50.83;;
34405;SDS011;20658;45.630;8.886;2024-03-08T00:15:39;85.80;;;49.03;;
34405;SDS011;20658;45.630;8.886;2024-03-08T00:18:13;70.03;;;41.55;;
34405;SDS011;20658;45.630;8.886;2024-03-08T00:20:48;72.25;;;42.95;;
34405;SDS011;20658;45.630;8.886;2024-03-08T00:23:22;59.67;;;38.00;;
34405;SDS011;20658;45.630;8.886;2024-03-08T00:25:55;49.38;;;33.70;;
34405;SDS011;20658;45.630;8.886;2024-03-08T00:28:30;55.05;;;34.17;;
34405;SDS011;20658;45.630;8.886;2024-03-08T00:31:00;57.97;;;37.50;;
34405;SDS011;20658;45.630;8.886;2024-03-08T00:33:34;53.35;;;36.72;;
34405;SDS011;20658;45.630;8.886;2024-03-08T00:36:03;49.33;;;34.35;;
34405;SDS011;20658;45.630;8.886;2024-03-08T00:38:38;49.75;;;32.67;;
34405;SDS011;20658;45.630;8.886;2024-03-08T00:41:12;53.03;;;32.88;;
34405;SDS011;20658;45.630;8.886;2024-03-08T00:43:47;56.42;;;33.08;;
34405;SDS011;20658;45.630;8.886;2024-03-08T00:46:15;44.95;;;30.98;;
34405;SDS011;20658;45.630;8.886;2024-03-08T00:48:49;53.33;;;32.65;;
34405;SDS011;20658;45.630;8.886;2024-03-08T00:51:17;45.60;;;32.05;;
34405;SDS011;20658;45.630;8.886;2024-03-08T00:53:46;49.85;;;33.25;;
34405;SDS011;20658;45.630;8.886;2024-03-08T00:56:14;47.67;;;33.08;;
34405;SDS011;20658;45.630;8.886;2024-03-08T00:58:43;49.15;;;31.85;;
34405;SDS011;20658;45.630;8.886;2024-03-08T01:01:14;49.03;;;32.38;;
34405;SDS011;20658;45.630;8.886;2024-03-08T01:03:43;54.33;;;32.28;;
34405;SDS011;20658;45.630;8.886;2024-03-08T01:06:12;69.25;;;36.10;;
34405;SDS011;20658;45.630;8.886;2024-03-08T01:08:41;71.30;;;39.35;;
34405;SDS011;20658;45.630;8.886;2024-03-08T01:11:09;65.30;;;38.67;;
34405;SDS011;20658;45.630;8.886;2024-03-08T01:13:40;58.45;;;36.88;;
34405;SDS011;20658;45.630;8.886;2024-03-08T01:16:08;68.78;;;38.92;;
34405;SDS011;20658;45.630;8.886;2024-03-08T01:18:44;65.93;;;39.40;;
34405;SDS011;20658;45.630;8.886;2024-03-08T01:21:17;62.70;;;38.03;;
34405;SDS011;20658;45.630;8.886;2024-03-08T01:23:46;61.05;;;37.15;;
34405;SDS011;20658;45.630;8.886;2024-03-08T01:26:20;57.20;;;35.80;;
34405;SDS011;20658;45.630;8.886;2024-03-08T01:28:53;68.50;;;40.45;;
34405;SDS011;20658;45.630;8.886;2024-03-08T01:31:27;56.08;;;37.88;;
34405;SDS011;20658;45.630;8.886;2024-03-08T01:33:57;60.72;;;36.58;;
34405;SDS011;20658;45.630;8.886;2024-03-08T01:36:31;52.25;;;32.35;;
34405;SDS011;20658;45.630;8.886;2024-03-08T01:38:59;56.55;;;34.35;;
34405;SDS011;20658;45.630;8.886;2024-03-08T01:41:28;54.60;;;33.63;;
34405;SDS011;20658;45.630;8.886;2024-03-08T01:44:01;55.72;;;32.88;;
34405;SDS011;20658;45.630;8.886;2024-03-08T01:46:35;50.92;;;33.20;;
34405;SDS011;20658;45.630;8.886;2024-03-08T01:49:10;54.20;;;32.33;;
34405;SDS011;20658;45.630;8.886;2024-03-08T01:51:45;51.38;;;34.13;;
34405;SDS011;20658;45.630;8.886;2024-03-08T01:54:19;51.97;;;36.20;;
34405;SDS011;20658;45.630;8.886;2024-03-08T01:56:53;50.90;;;34.47;;
34405;SDS011;20658;45.630;8.886;2024-03-08T01:59:26;55.92;;;35.25;;
34405;SDS011;20658;45.630;8.886;2024-03-08T02:01:55;54.00;;;36.17;;
34405;SDS011;20658;45.630;8.886;2024-03-08T02:04:29;52.38;;;34.45;;
34405;SDS011;20658;45.630;8.886;2024-03-08T02:07:03;59.92;;;34.80;;
34405;SDS011;20658;45.630;8.886;2024-03-08T02:09:32;60.72;;;37.47;;
34405;SDS011;20658;45.630;8.886;2024-03-08T02:12:00;57.72;;;36.20;;
34405;SDS011;20658;45.630;8.886;2024-03-08T02:14:32;53.35;;;34.33;;
34405;SDS011;20658;45.630;8.886;2024-03-08T02:17:06;53.60;;;34.20;;
34405;SDS011;20658;45.630;8.886;2024-03-08T02:19:41;52.40;;;32.75;;
34405;SDS011;20658;45.630;8.886;2024-03-08T02:22:16;56.33;;;35.50;;
34405;SDS011;20658;45.630;8.886;2024-03-08T02:24:49;50.13;;;32.97;;
34405;SDS011;20658;45.630;8.886;2024-03-08T02:27:23;49.78;;;34.25;;
34405;SDS011;20658;45.630;8.886;2024-03-08T02:29:57;47.55;;;31.35;;
34405;SDS011;20658;45.630;8.886;2024-03-08T02:32:31;52.70;;;33.40;;
34405;SDS011;20658;45.630;8.886;2024-03-08T02:35:05;51.95;;;34.92;;
34405;SDS011;20658;45.630;8.886;2024-03-08T02:37:35;59.75;;;35.60;;
34405;SDS011;20658;45.630;8.886;2024-03-08T02:40:10;49.05;;;33.67;;
34405;SDS011;20658;45.630;8.886;2024-03-08T02:42:44;50.92;;;33.53;;
34405;SDS011;20658;45.630;8.886;2024-03-08T02:45:18;46.60;;;31.67;;
34405;SDS011;20658;45.630;8.886;2024-03-08T02:47:52;52.25;;;29.35;;
34405;SDS011;20658;45.630;8.886;2024-03-08T02:50:25;49.33;;;30.60;;
34405;SDS011;20658;45.630;8.886;2024-03-08T02:52:55;46.05;;;30.60;;
34405;SDS011;20658;45.630;8.886;2024-03-08T02:55:24;49.78;;;28.77;;
34405;SDS011;20658;45.630;8.886;2024-03-08T02:57:57;44.85;;;29.17;;
34405;SDS011;20658;45.630;8.886;2024-03-08T03:00:26;46.75;;;30.00;;
34405;SDS011;20658;45.630;8.886;2024-03-08T03:02:57;44.78;;;30.00;;
34405;SDS011;20658;45.630;8.886;2024-03-08T03:05:31;47.50;;;30.38;;
34405;SDS011;20658;45.630;8.886;2024-03-08T03:08:06;45.55;;;31.45;;
34405;SDS011;20658;45.630;8.886;2024-03-08T03:10:42;42.85;;;29.55;;
34405;SDS011;20658;45.630;8.886;2024-03-08T03:13:17;49.15;;;29.23;;
34405;SDS011;20658;45.630;8.886;2024-03-08T03:15:46;45.35;;;30.00;;
34405;SDS011;20658;45.630;8.886;2024-03-08T03:18:20;50.47;;;29.67;;
34405;SDS011;20658;45.630;8.886;2024-03-08T03:20:50;49.60;;;30.98;;
34405;SDS011;20658;45.630;8.886;2024-03-08T03:23:21;47.70;;;29.73;;
34405;SDS011;20658;45.630;8.886;2024-03-08T03:25:54;60.17;;;33.85;;
34405;SDS011;20658;45.630;8.886;2024-03-08T03:28:24;54.42;;;31.73;;
34405;SDS011;20658;45.630;8.886;2024-03-08T03:30:59;52.35;;;32.10;;
34405;SDS011;20658;45.630;8.886;2024-03-08T03:33:28;58.88;;;33.40;;
34405;SDS011;20658;45.630;8.886;2024-03-08T03:35:56;61.55;;;32.72;;
34405;SDS011;20658;45.630;8.886;2024-03-08T03:38:27;55.03;;;31.33;;
34405;SDS011;20658;45.630;8.886;2024-03-08T03:41:00;53.83;;;31.52;;
34405;SDS011;20658;45.630;8.886;2024-03-08T03:43:36;62.33;;;34.88;;
34405;SDS011;20658;45.630;8.886;2024-03-08T03:46:06;62.08;;;35.40;;
34405;SDS011;20658;45.630;8.886;2024-03-08T03:48:39;60.38;;;33.83;;
34405;SDS011;20658;45.630;8.886;2024-03-08T03:51:10;66.30;;;35.70;;
34405;SDS011;20658;45.630;8.886;2024-03-08T03:53:40;60.45;;;35.88;;
34405;SDS011;20658;45.630;8.886;2024-03-08T03:56:10;63.63;;;36.20;;
34405;SDS011;20658;45.630;8.886;2024-03-08T03:58:40;63.80;;;34.08;;
34405;SDS011;20658;45.630;8.886;2024-03-08T04:01:09;58.55;;;33.78;;
34405;SDS011;20658;45.630;8.886;2024-03-08T04:03:40;57.60;;;34.65;;
34405;SDS011;20658;45.630;8.886;2024-03-08T04:06:10;66.60;;;32.65;;
34405;SDS011;20658;45.630;8.886;2024-03-08T04:08:40;55.42;;;32.45;;
34405;SDS011;20658;45.630;8.886;2024-03-08T04:11:14;60.17;;;35.25;;
34405;SDS011;20658;45.630;8.886;2024-03-08T04:13:48;53.65;;;32.90;;
34405;SDS011;20658;45.630;8.886;2024-03-08T04:16:21;62.90;;;34.75;;
34405;SDS011;20658;45.630;8.886;2024-03-08T04:18:55;61.30;;;35.22;;
34405;SDS011;20658;45.630;8.886;2024-03-08T04:21:29;55.72;;;33.35;;
34405;SDS011;20658;45.630;8.886;2024-03-08T04:24:05;59.60;;;35.33;;
34405;SDS011;20658;45.630;8.886;2024-03-08T04:26:40;56.10;;;33.53;;
34405;SDS011;20658;45.630;8.886;2024-03-08T04:29:13;50.97;;;34.83;;
34405;SDS011;20658;45.630;8.886;2024-03-08T04:31:48;64.15;;;36.60;;
34405;SDS011;20658;45.630;8.886;2024-03-08T04:34:20;53.35;;;34.28;;
34405;SDS011;20658;45.630;8.886;2024-03-08T04:36:54;52.33;;;37.38;;
34405;SDS011;20658;45.630;8.886;2024-03-08T04:39:31;52.95;;;32.72;;
34405;SDS011;20658;45.630;8.886;2024-03-08T04:42:04;50.20;;;33.47;;
34405;SDS011;20658;45.630;8.886;2024-03-08T04:44:41;52.47;;;34.25;;
34405;SDS011;20658;45.630;8.886;2024-03-08T04:47:14;55.60;;;34.13;;
34405;SDS011;20658;45.630;8.886;2024-03-08T04:49:49;48.45;;;32.53;;
34405;SDS011;20658;45.630;8.886;2024-03-08T04:52:22;52.40;;;33.65;;
34405;SDS011;20658;45.630;8.886;2024-03-08T04:54:57;56.45;;;35.67;;
34405;SDS011;20658;45.630;8.886;2024-03-08T04:57:31;57.08;;;35.65;;
34405;SDS011;20658;45.630;8.886;2024-03-08T05:00:05;61.10;;;36.67;;
34405;SDS011;20658;45.630;8.886;2024-03-08T05:02:42;61.67;;;36.42;;
34405;SDS011;20658;45.630;8.886;2024-03-08T05:05:16;60.55;;;38.00;;
34405;SDS011;20658;45.630;8.886;2024-03-08T05:07:49;64.07;;;37.70;;
34405;SDS011;20658;45.630;8.886;2024-03-08T05:10:24;63.72;;;38.15;;
34405;SDS011;20658;45.630;8.886;2024-03-08T05:12:57;68.15;;;40.30;;
34405;SDS011;20658;45.630;8.886;2024-03-08T05:15:31;67.70;;;38.90;;
34405;SDS011;20658;45.630;8.886;2024-03-08T05:18:06;61.90;;;36.17;;
34405;SDS011;20658;45.630;8.886;2024-03-08T05:20:34;68.75;;;39.22;;
34405;SDS011;20658;45.630;8.886;2024-03-08T05:23:08;71.07;;;41.38;;
34405;SDS011;20658;45.630;8.886;2024-03-08T05:25:38;62.20;;;37.78;;
34405;SDS011;20658;45.630;8.886;2024-03-08T05:28:12;63.67;;;38.00;;
34405;SDS011;20658;45.630;8.886;2024-03-08T05:30:41;56.75;;;36.75;;
34405;SDS011;20658;45.630;8.886;2024-03-08T05:33:15;55.53;;;34.95;;
34405;SDS011;20658;45.630;8.886;2024-03-08T05:35:43;50.55;;;33.65;;
34405;SDS011;20658;45.630;8.886;2024-03-08T05:38:17;59.90;;;38.65;;
34405;SDS011;20658;45.630;8.886;2024-03-08T05:40:48;59.33;;;37.17;;
34405;SDS011;20658;45.630;8.886;2024-03-08T05:43:17;54.20;;;34.58;;
34405;SDS011;20658;45.630;8.886;2024-03-08T05:45:46;57.38;;;35.58;;
34405;SDS011;20658;45.630;8.886;2024-03-08T05:48:14;58.38;;;37.58;;
34405;SDS011;20658;45.630;8.886;2024-03-08T05:50:45;57.67;;;38.30;;
34405;SDS011;20658;45.630;8.886;2024-03-08T05:53:13;66.07;;;39.83;;
34405;SDS011;20658;45.630;8.886;2024-03-08T05:55:42;54.70;;;35.83;;
34405;SDS011;20658;45.630;8.886;2024-03-08T05:58:12;64.90;;;40.17;;
34405;SDS011;20658;45.630;8.886;2024-03-08T06:00:40;66.60;;;39.78;;
34405;SDS011;20658;45.630;8.886;2024-03-08T06:03:14;57.15;;;38.35;;
34405;SDS011;20658;45.630;8.886;2024-03-08T06:05:47;59.05;;;39.25;;
34405;SDS011;20658;45.630;8.886;2024-03-08T06:08:21;62.10;;;39.20;;
34405;SDS011;20658;45.630;8.886;2024-03-08T06:10:54;52.55;;;37.00;;
34405;SDS011;20658;45.630;8.886;2024-03-08T06:13:24;57.47;;;39.17;;
34405;SDS011;20658;45.630;8.886;2024-03-08T06:15:53;60.83;;;37.97;;
34405;SDS011;20658;45.630;8.886;2024-03-08T06:18:21;58.22;;;36.92;;
34405;SDS011;20658;45.630;8.886;2024-03-08T06:20:55;57.80;;;38.92;;
34405;SDS011;20658;45.630;8.886;2024-03-08T06:23:24;55.53;;;38.15;;
34405;SDS011;20658;45.630;8.886;2024-03-08T06:25:53;54.90;;;35.92;;
34405;SDS011;20658;45.630;8.886;2024-03-08T06:28:30;57.35;;;37.60;;
34405;SDS011;20658;45.630;8.886;2024-03-08T06:31:04;58.33;;;36.22;;
34405;SDS011;20658;45.630;8.886;2024-03-08T06:33:39;55.17;;;33.67;;
34405;SDS011;20658;45.630;8.886;2024-03-08T06:36:13;52.72;;;34.47;;
34405;SDS011;20658;45.630;8.886;2024-03-08T06:38:45;54.03;;;34.42;;
34405;SDS011;20658;45.630;8.886;2024-03-08T06:41:14;49.38;;;34.15;;
34405;SDS011;20658;45.630;8.886;2024-03-08T06:43:44;58.13;;;35.22;;
34405;SDS011;20658;45.630;8.886;2024-03-08T06:48:48;53.90;;;32.83;;
34405;SDS011;20658;45.630;8.886;2024-03-08T06:51:16;49.55;;;33.05;;
34405;SDS011;20658;45.630;8.886;2024-03-08T06:53:50;51.45;;;33.60;;
34405;SDS011;20658;45.630;8.886;2024-03-08T06:56:19;46.78;;;30.90;;
34405;SDS011;20658;45.630;8.886;2024-03-08T06:58:55;51.05;;;32.35;;
34405;SDS011;20658;45.630;8.886;2024-03-08T07:01:28;45.17;;;29.55;;
34405;SDS011;20658;45.630;8.886;2024-03-08T07:04:03;38.65;;;27.00;;
34405;SDS011;20658;45.630;8.886;2024-03-08T07:06:32;43.55;;;29.65;;
34405;SDS011;20658;45.630;8.886;2024-03-08T07:09:00;41.55;;;27.27;;
34405;SDS011;20658;45.630;8.886;2024-03-08T07:11:29;41.13;;;27.00;;
34405;SDS011;20658;45.630;8.886;2024-03-08T07:14:04;41.17;;;26.90;;
34405;SDS011;20658;45.630;8.886;2024-03-08T07:16:33;45.35;;;26.58;;
34405;SDS011;20658;45.630;8.886;2024-03-08T07:19:06;40.58;;;24.83;;
34405;SDS011;20658;45.630;8.886;2024-03-08T07:21:40;40.88;;;26.02;;
34405;SDS011;20658;45.630;8.886;2024-03-08T07:24:09;35.95;;;24.13;;
34405;SDS011;20658;45.630;8.886;2024-03-08T07:26:59;38.80;;;24.65;;
34405;SDS011;20658;45.630;8.886;2024-03-08T07:29:28;39.63;;;24.77;;
34405;SDS011;20658;45.630;8.886;2024-03-08T07:31:57;36.78;;;23.92;;
34405;SDS011;20658;45.630;8.886;2024-03-08T07:34:38;37.00;;;23.83;;
34405;SDS011;20658;45.630;8.886;2024-03-08T07:37:12;36.35;;;23.63;;
34405;SDS011;20658;45.630;8.886;2024-03-08T07:39:46;35.47;;;23.27;;
34405;SDS011;20658;45.630;8.886;2024-03-08T07:42:14;37.40;;;24.20;;
34405;SDS011;20658;45.630;8.886;2024-03-08T07:44:44;36.50;;;24.73;;
34405;SDS011;20658;45.630;8.886;2024-03-08T07:47:14;33.28;;;22.45;;
34405;SDS011;20658;45.630;8.886;2024-03-08T07:49:49;51.97;;;23.77;;
34405;SDS011;20658;45.630;8.886;2024-03-08T07:52:18;55.00;;;23.38;;
34405;SDS011;20658;45.630;8.886;2024-03-08T07:54:51;36.95;;;22.17;;
34405;SDS011;20658;45.630;8.886;2024-03-08T07:57:26;34.40;;;21.73;;
34405;SDS011;20658;45.630;8.886;2024-03-08T07:59:57;35.85;;;22.77;;
34405;SDS011;20658;45.630;8.886;2024-03-08T08:02:26;33.03;;;21.10;;
34405;SDS011;20658;45.630;8.886;2024-03-08T08:04:59;29.95;;;18.67;;
34405;SDS011;20658;45.630;8.886;2024-03-08T08:07:28;31.23;;;19.90;;
34405;SDS011;20658;45.630;8.886;2024-03-08T08:09:56;27.92;;;18.60;;
34405;SDS011;20658;45.630;8.886;2024-03-08T08:12:30;31.13;;;18.95;;
34405;SDS011;20658;45.630;8.886;2024-03-08T08:15:07;33.95;;;19.38;;
34405;SDS011;20658;45.630;8.886;2024-03-08T08:17:36;37.17;;;19.58;;
34405;SDS011;20658;45.630;8.886;2024-03-08T08:20:05;29.55;;;18.02;;
34405;SDS011;20658;45.630;8.886;2024-03-08T08:22:34;29.10;;;16.95;;
34405;SDS011;20658;45.630;8.886;2024-03-08T08:25:10;28.23;;;17.33;;
34405;SDS011;20658;45.630;8.886;2024-03-08T08:27:44;27.20;;;16.63;;
34405;SDS011;20658;45.630;8.886;2024-03-08T08:30:14;29.95;;;18.20;;
34405;SDS011;20658;45.630;8.886;2024-03-08T08:32:48;30.10;;;17.92;;
34405;SDS011;20658;45.630;8.886;2024-03-08T08:35:22;28.27;;;17.27;;
34405;SDS011;20658;45.630;8.886;2024-03-08T08:37:50;31.13;;;17.55;;
34405;SDS011;20658;45.630;8.886;2024-03-08T08:40:24;27.45;;;16.40;;
34405;SDS011;20658;45.630;8.886;2024-03-08T08:42:52;31.33;;;17.48;;
34405;SDS011;20658;45.630;8.886;2024-03-08T08:45:30;35.60;;;20.15;;
34405;SDS011;20658;45.630;8.886;2024-03-08T08:47:59;29.25;;;17.75;;
34405;SDS011;20658;45.630;8.886;2024-03-08T08:50:28;26.30;;;17.17;;
34405;SDS011;20658;45.630;8.886;2024-03-08T08:53:02;32.42;;;16.45;;
34405;SDS011;20658;45.630;8.886;2024-03-08T08:55:33;32.00;;;17.40;;
34405;SDS011;20658;45.630;8.886;2024-03-08T08:58:07;34.72;;;16.77;;
34405;SDS011;20658;45.630;8.886;2024-03-08T09:00:42;27.23;;;17.00;;
34405;SDS011;20658;45.630;8.886;2024-03-08T09:03:11;30.05;;;17.52;;
34405;SDS011;20658;45.630;8.886;2024-03-08T09:05:39;31.65;;;18.10;;
34405;SDS011;20658;45.630;8.886;2024-03-08T09:08:14;30.42;;;17.52;;
34405;SDS011;20658;45.630;8.886;2024-03-08T09:10:43;26.27;;;16.20;;
34405;SDS011;20658;45.630;8.886;2024-03-08T09:13:12;28.90;;;18.92;;
34405;SDS011;20658;45.630;8.886;2024-03-08T09:15:47;28.23;;;17.58;;
34405;SDS011;20658;45.630;8.886;2024-03-08T09:18:21;29.05;;;17.48;;
34405;SDS011;20658;45.630;8.886;2024-03-08T09:20:55;27.38;;;15.75;;
34405;SDS011;20658;45.630;8.886;2024-03-08T09:23:24;27.33;;;16.65;;
34405;SDS011;20658;45.630;8.886;2024-03-08T09:26:01;26.35;;;16.45;;
34405;SDS011;20658;45.630;8.886;2024-03-08T09:28:35;33.75;;;16.80;;
34405;SDS011;20658;45.630;8.886;2024-03-08T09:31:06;30.10;;;17.60;;
34405;SDS011;20658;45.630;8.886;2024-03-08T09:33:37;26.65;;;16.30;;
34405;SDS011;20658;45.630;8.886;2024-03-08T09:36:06;27.13;;;17.02;;
34405;SDS011;20658;45.630;8.886;2024-03-08T09:38:35;33.60;;;16.95;;
34405;SDS011;20658;45.630;8.886;2024-03-08T09:41:05;26.52;;;16.00;;
34405;SDS011;20658;45.630;8.886;2024-03-08T09:43:36;28.23;;;16.73;;
34405;SDS011;20658;45.630;8.886;2024-03-08T09:46:07;31.13;;;18.25;;
34405;SDS011;20658;45.630;8.886;2024-03-08T09:48:37;28.58;;;17.60;;
34405;SDS011;20658;45.630;8.886;2024-03-08T09:51:13;29.50;;;17.17;;
34405;SDS011;20658;45.630;8.886;2024-03-08T09:53:42;27.90;;;16.67;;
34405;SDS011;20658;45.630;8.886;2024-03-08T09:56:10;26.60;;;16.75;;
34405;SDS011;20658;45.630;8.886;2024-03-08T09:58:44;29.38;;;17.35;;
34405;SDS011;20658;45.630;8.886;2024-03-08T10:01:40;30.20;;;16.95;;
34405;SDS011;20658;45.630;8.886;2024-03-08T10:04:15;28.02;;;17.90;;
34405;SDS011;20658;45.630;8.886;2024-03-08T10:06:44;27.35;;;17.10;;
34405;SDS011;20658;45.630;8.886;2024-03-08T10:09:19;27.50;;;17.08;;
34405;SDS011;20658;45.630;8.886;2024-03-08T10:11:47;27.25;;;17.20;;
34405;SDS011;20658;45.630;8.886;2024-03-08T10:14:16;27.23;;;17.65;;
34405;SDS011;20658;45.630;8.886;2024-03-08T10:16:46;27.10;;;16.45;;
34405;SDS011;20658;45.630;8.886;2024-03-08T10:19:20;26.35;;;16.98;;
34405;SDS011;20658;45.630;8.886;2024-03-08T10:21:49;26.00;;;17.00;;
34405;SDS011;20658;45.630;8.886;2024-03-08T10:24:20;29.57;;;16.43;;
34405;SDS011;20658;45.630;8.886;2024-03-08T10:26:55;27.55;;;17.25;;
34405;SDS011;20658;45.630;8.886;2024-03-08T10:29:33;26.42;;;16.40;;
34405;SDS011;20658;45.630;8.886;2024-03-08T10:32:03;28.15;;;16.85;;
34405;SDS011;20658;45.630;8.886;2024-03-08T10:34:35;28.98;;;16.35;;
34405;SDS011;20658;45.630;8.886;2024-03-08T10:37:09;25.52;;;15.55;;
34405;SDS011;20658;45.630;8.886;2024-03-08T10:39:45;26.33;;;15.75;;
34405;SDS011;20658;45.630;8.886;2024-03-08T10:42:27;23.30;;;14.32;;
34405;SDS011;20658;45.630;8.886;2024-03-08T10:44:58;25.20;;;15.00;;
34405;SDS011;20658;45.630;8.886;2024-03-08T10:50:16;25.13;;;16.00;;
34405;SDS011;20658;45.630;8.886;2024-03-08T10:52:53;24.63;;;14.77;;
34405;SDS011;20658;45.630;8.886;2024-03-08T10:55:27;27.48;;;15.30;;
34405;SDS011;20658;45.630;8.886;2024-03-08T10:57:56;24.20;;;15.23;;
34405;SDS011;20658;45.630;8.886;2024-03-08T11:00:25;24.77;;;16.02;;
34405;SDS011;20658;45.630;8.886;2024-03-08T11:02:55;28.35;;;14.57;;
34405;SDS011;20658;45.630;8.886;2024-03-08T11:05:36;26.67;;;14.93;;
34405;SDS011;20658;45.630;8.886;2024-03-08T11:08:15;25.88;;;14.50;;
34405;SDS011;20658;45.630;8.886;2024-03-08T11:10:46;24.23;;;13.65;;
34405;SDS011;20658;45.630;8.886;2024-03-08T11:13:32;25.27;;;15.07;;
34405;SDS011;20658;45.630;8.886;2024-03-08T11:16:07;22.83;;;14.80;;
34405;SDS011;20658;45.630;8.886;2024-03-08T11:18:42;26.25;;;15.32;;
34405;SDS011;20658;45.630;8.886;2024-03-08T11:21:10;23.02;;;14.57;;
34405;SDS011;20658;45.630;8.886;2024-03-08T11:23:39;26.60;;;15.30;;
34405;SDS011;20658;45.630;8.886;2024-03-08T11:26:23;25.95;;;15.10;;
34405;SDS011;20658;45.630;8.886;2024-03-08T11:28:52;25.60;;;14.52;;
34405;SDS011;20658;45.630;8.886;2024-03-08T11:31:22;26.17;;;15.80;;
34405;SDS011;20658;45.630;8.886;2024-03-08T11:33:54;26.38;;;15.60;;
34405;SDS011;20658;45.630;8.886;2024-03-08T11:36:29;22.80;;;14.38;;
34405;SDS011;20658;45.630;8.886;2024-03-08T11:39:07;23.83;;;14.20;;
34405;SDS011;20658;45.630;8.886;2024-03-08T11:41:41;27.50;;;15.13;;
34405;SDS011;20658;45.630;8.886;2024-03-08T11:44:17;25.70;;;15.20;;
34405;SDS011;20658;45.630;8.886;2024-03-08T11:46:51;25.35;;;15.10;;
34405;SDS011;20658;45.630;8.886;2024-03-08T11:49:26;25.63;;;14.63;;
34405;SDS011;20658;45.630;8.886;2024-03-08T11:51:55;25.50;;;14.50;;
34405;SDS011;20658;45.630;8.886;2024-03-08T11:54:28;28.38;;;14.55;;
34405;SDS011;20658;45.630;8.886;2024-03-08T11:57:02;25.88;;;15.88;;
34405;SDS011;20658;45.630;8.886;2024-03-08T11:59:32;24.40;;;15.23;;
34405;SDS011;20658;45.630;8.886;2024-03-08T12:02:06;23.45;;;14.20;;
34405;SDS011;20658;45.630;8.886;2024-03-08T12:04:43;23.70;;;15.20;;
34405;SDS011;20658;45.630;8.886;2024-03-08T12:07:17;24.48;;;14.90;;
34405;SDS011;20658;45.630;8.886;2024-03-08T12:10:14;22.83;;;14.43;;
34405;SDS011;20658;45.630;8.886;2024-03-08T12:12:50;24.25;;;15.45;;
34405;SDS011;20658;45.630;8.886;2024-03-08T12:15:21;23.38;;;15.10;;
34405;SDS011;20658;45.630;8.886;2024-03-08T12:17:51;24.52;;;15.13;;
34405;SDS011;20658;45.630;8.886;2024-03-08T12:20:24;23.88;;;14.02;;
34405;SDS011;20658;45.630;8.886;2024-03-08T12:22:56;24.27;;;15.77;;
34405;SDS011;20658;45.630;8.886;2024-03-08T12:25:30;25.48;;;15.10;;
34405;SDS011;20658;45.630;8.886;2024-03-08T12:28:11;25.70;;;15.70;;
34405;SDS011;20658;45.630;8.886;2024-03-08T12:30:46;24.35;;;14.85;;
34405;SDS011;20658;45.630;8.886;2024-03-08T12:33:17;24.47;;;15.77;;
34405;SDS011;20658;45.630;8.886;2024-03-08T12:35:52;23.08;;;15.60;;
34405;SDS011;20658;45.630;8.886;2024-03-08T12:38:27;27.27;;;16.15;;
34405;SDS011;20658;45.630;8.886;2024-03-08T12:41:03;24.08;;;15.25;;
34405;SDS011;20658;45.630;8.886;2024-03-08T12:43:31;26.27;;;14.23;;
34405;SDS011;20658;45.630;8.886;2024-03-08T12:46:05;23.83;;;14.93;;
34405;SDS011;20658;45.630;8.886;2024-03-08T12:48:40;23.15;;;15.20;;
34405;SDS011;20658;45.630;8.886;2024-03-08T12:51:20;23.35;;;14.70;;
34405;SDS011;20658;45.630;8.886;2024-03-08T12:53:49;22.23;;;14.30;;
34405;SDS011;20658;45.630;8.886;2024-03-08T12:56:28;21.00;;;13.98;;
34405;SDS011;20658;45.630;8.886;2024-03-08T13:01:38;20.80;;;13.35;;
34405;SDS011;20658;45.630;8.886;2024-03-08T13:04:12;21.55;;;14.48;;
34405;SDS011;20658;45.630;8.886;2024-03-08T13:06:47;22.17;;;13.25;;
34405;SDS011;20658;45.630;8.886;2024-03-08T13:09:21;21.20;;;13.23;;
34405;SDS011;20658;45.630;8.886;2024-03-08T13:11:55;20.02;;;12.77;;
34405;SDS011;20658;45.630;8.886;2024-03-08T13:14:30;20.08;;;13.52;;
34405;SDS011;20658;45.630;8.886;2024-03-08T13:17:01;23.90;;;13.73;;
34405;SDS011;20658;45.630;8.886;2024-03-08T13:19:30;26.27;;;14.55;;
34405;SDS011;20658;45.630;8.886;2024-03-08T13:22:06;21.20;;;13.40;;
34405;SDS011;20658;45.630;8.886;2024-03-08T13:24:43;26.67;;;13.63;;
34405;SDS011;20658;45.630;8.886;2024-03-08T13:27:11;26.35;;;17.48;;
34405;SDS011;20658;45.630;8.886;2024-03-08T13:29:50;23.80;;;14.82;;
34405;SDS011;20658;45.630;8.886;2024-03-08T13:32:24;23.55;;;14.50;;
34405;SDS011;20658;45.630;8.886;2024-03-08T13:34:53;23.77;;;14.02;;
34405;SDS011;20658;45.630;8.886;2024-03-08T13:37:23;22.15;;;13.77;;
34405;SDS011;20658;45.630;8.886;2024-03-08T13:39:58;21.60;;;13.50;;
34405;SDS011;20658;45.630;8.886;2024-03-08T13:42:26;20.38;;;13.32;;
34405;SDS011;20658;45.630;8.886;2024-03-08T13:45:00;25.95;;;13.85;;
34405;SDS011;20658;45.630;8.886;2024-03-08T13:47:36;23.65;;;13.25;;
34405;SDS011;20658;45.630;8.886;2024-03-08T13:50:06;25.23;;;14.50;;
34405;SDS011;20658;45.630;8.886;2024-03-08T13:52:39;26.27;;;15.20;;
34405;SDS011;20658;45.630;8.886;2024-03-08T13:57:39;21.55;;;12.63;;
34405;SDS011;20658;45.630;8.886;2024-03-08T14:00:08;21.23;;;13.45;;
34405;SDS011;20658;45.630;8.886;2024-03-08T14:02:41;22.08;;;12.98;;
34405;SDS011;20658;45.630;8.886;2024-03-08T14:05:09;21.05;;;12.93;;
34405;SDS011;20658;45.630;8.886;2024-03-08T14:07:42;22.77;;;13.13;;
34405;SDS011;20658;45.630;8.886;2024-03-08T14:10:13;21.95;;;13.32;;
34405;SDS011;20658;45.630;8.886;2024-03-08T14:12:43;23.55;;;13.95;;
34405;SDS011;20658;45.630;8.886;2024-03-08T14:15:14;24.80;;;13.20;;
34405;SDS011;20658;45.630;8.886;2024-03-08T14:17:43;19.85;;;12.75;;
34405;SDS011;20658;45.630;8.886;2024-03-08T14:20:13;24.17;;;14.30;;
34405;SDS011;20658;45.630;8.886;2024-03-08T14:22:45;21.13;;;13.87;;
34405;SDS011;20658;45.630;8.886;2024-03-08T14:25:19;23.73;;;13.20;;
34405;SDS011;20658;45.630;8.886;2024-03-08T14:27:50;22.17;;;13.23;;
34405;SDS011;20658;45.630;8.886;2024-03-08T14:30:20;23.70;;;14.55;;
34405;SDS011;20658;45.630;8.886;2024-03-08T14:33:01;23.40;;;14.40;;
34405;SDS011;20658;45.630;8.886;2024-03-08T14:35:37;23.25;;;13.30;;
34405;SDS011;20658;45.630;8.886;2024-03-08T14:38:12;21.23;;;13.75;;
34405;SDS011;20658;45.630;8.886;2024-03-08T14:40:43;25.35;;;14.55;;
34405;SDS011;20658;45.630;8.886;2024-03-08T14:43:13;24.77;;;14.40;;
34405;SDS011;20658;45.630;8.886;2024-03-08T14:45:48;24.80;;;14.32;;
34405;SDS011;20658;45.630;8.886;2024-03-08T14:48:17;22.65;;;14.20;;
34405;SDS011;20658;45.630;8.886;2024-03-08T14:50:45;23.77;;;14.45;;
34405;SDS011;20658;45.630;8.886;2024-03-08T14:53:16;23.42;;;13.30;;
34405;SDS011;20658;45.630;8.886;2024-03-08T14:55:45;25.83;;;13.93;;
34405;SDS011;20658;45.630;8.886;2024-03-08T14:58:13;27.77;;;15.70;;
34405;SDS011;20658;45.630;8.886;2024-03-08T15:00:47;24.42;;;13.30;;